Tucumcari ASC Data

Date Time Air Temperature Relative Humidity Dewpoint Windchill Heat Index Wind Speed Wind Dir. Rain Solar Radiation Soil Temperature
2m 2m 3m 3m 10cm
US/Mountain F % F F F MPH deg in MJ/m^2 F
max avg avg
2021-09-15 00:05:00 67.1 61.8 53.6 67.1 67.1 13.3 13.3 9.0 290.6 307.5 0.00 0.0000090 83.7
2021-09-15 00:10:00 67.4 59.6 52.9 67.4 67.4 9.6 17.4 11.7 341.9 309.5 0.00 0.0000441 83.6
2021-09-15 00:15:00 67.7 59.1 52.9 67.7 67.7 5.3 12.4 7.4 305.0 357.1 0.00 0.0000000 83.4
2021-09-15 00:20:00 63.8 74.1 55.4 63.8 63.8 14.9 20.8 14.3 288.8 309.2 0.00 0.0000000 83.2
2021-09-15 00:25:00 62.3 78.2 55.5 62.3 62.3 9.2 18.3 14.0 315.9 319.5 0.00 0.0000000 83.1
2021-09-15 00:30:00 61.7 81.6 56.0 61.7 61.7 9.7 12.8 8.8 42.2 10.5 0.03 0.0000000 82.9
2021-09-15 00:35:00 62.0 80.1 55.8 62.0 62.0 12.1 14.6 10.5 51.3 32.7 0.01 0.0000016 82.7
2021-09-15 00:40:00 61.0 84.0 56.1 61.0 61.0 14.6 18.5 15.2 57.7 57.7 0.01 0.0000000 82.5
2021-09-15 00:45:00 60.7 82.0 55.2 60.7 60.7 15.6 21.2 16.0 60.5 64.0 0.09 0.0000251 82.4
2021-09-15 00:50:00 60.8 83.7 55.8 60.8 60.8 9.2 17.8 12.5 63.3 63.4 0.01 0.0000054 82.1
2021-09-15 00:55:00 61.2 81.4 55.4 61.2 61.2 17.4 17.4 12.2 48.0 62.1 0.00 0.0000000 81.8
2021-09-15 01:00:00 61.2 82.6 55.8 61.2 61.2 11.7 16.9 13.6 72.9 67.4 0.00 0.0000000 81.5
2021-09-15 01:05:00 60.9 84.9 56.3 60.9 60.9 11.3 13.9 10.0 115.9 75.3 0.00 0.0000000 81.1
2021-09-15 01:10:00 60.6 85.5 56.2 60.6 60.6 11.2 14.4 10.8 99.2 86.8 0.02 0.0000014 80.7
2021-09-15 01:15:00 60.8 84.0 56.0 60.8 60.8 10.6 14.0 11.4 100.7 98.0 0.02 0.0000159 80.4
2021-09-15 01:20:00 61.4 81.6 55.7 61.4 61.4 13.5 22.8 15.3 149.1 123.4 0.02 0.0000215 80.1
2021-09-15 01:25:00 61.0 83.0 55.8 61.0 61.0 9.4 16.5 10.8 111.2 130.8 0.00 0.0000005 79.7
2021-09-15 01:30:00 61.3 80.1 55.1 61.3 61.3 10.3 16.5 13.1 59.3 91.6 0.01 0.0000000 79.3
2021-09-15 01:35:00 61.4 79.7 55.0 61.4 61.4 12.6 18.1 12.3 97.4 91.8 0.00 0.0000000 79.0
2021-09-15 01:40:00 61.3 80.3 55.1 61.3 61.3 10.3 17.1 11.9 90.7 93.6 0.00 0.0000000 78.6
2021-09-15 01:45:00 61.2 82.1 55.7 61.2 61.2 9.6 13.5 9.7 106.5 102.6 0.00 0.0000000 78.3
2021-09-15 01:50:00 61.1 81.2 55.3 61.1 61.1 8.5 13.3 10.2 81.9 101.4 0.00 0.0000000 78.0
2021-09-15 01:55:00 61.2 80.9 55.3 61.2 61.2 7.8 13.1 9.8 59.0 94.8 0.00 0.0000000 77.6
2021-09-15 02:00:00 61.1 81.3 55.4 61.1 61.1 8.8 13.1 9.1 111.5 112.0 0.00 0.0000000 77.3
2021-09-15 02:05:00 61.1 81.0 55.3 61.1 61.1 7.6 10.1 8.4 133.1 136.7 0.00 0.0000000 77.1
2021-09-15 02:10:00 61.1 81.7 55.4 61.1 61.1 5.5 8.5 5.8 128.5 131.0 0.00 0.0000000 76.8
2021-09-15 02:15:00 60.8 82.7 55.5 60.8 60.8 3.0 6.5 4.4 107.4 126.4 0.00 0.0000000 76.6
2021-09-15 02:20:00 60.6 83.4 55.6 60.6 60.6 0.0 3.5 1.7 84.2 102.3 0.00 0.0000000 76.3
2021-09-15 02:25:00 60.5 84.7 55.8 60.5 60.5 3.0 3.0 0.9 276.9 282.3 0.00 0.0000000 76.1
2021-09-15 02:30:00 60.2 86.8 56.3 60.2 60.2 3.8 5.3 3.8 325.5 299.9 0.00 0.0000000 75.9
2021-09-15 02:35:00 59.7 88.2 56.2 59.7 59.7 2.8 4.9 3.7 283.4 321.7 0.00 0.0000000 75.7
2021-09-15 02:40:00 59.5 89.3 56.4 59.5 59.5 1.9 3.0 2.3 343.0 307.8 0.00 0.0000000 75.5
2021-09-15 02:45:00 59.7 89.3 56.5 59.7 59.7 3.0 3.1 2.6 302.4 320.1 0.00 0.0000000 75.3
2021-09-15 02:50:00 59.3 89.6 56.2 59.3 59.3 2.1 3.7 3.0 300.9 276.2 0.00 0.0000000 75.2
2021-09-15 02:55:00 59.6 89.6 56.5 59.6 59.6 1.7 3.5 2.7 324.1 316.3 0.00 0.0000000 75.0
2021-09-15 03:00:00 59.5 89.7 56.5 59.5 59.5 2.6 3.0 2.1 314.9 315.4 0.00 0.0000000 74.9
2021-09-15 03:05:00 59.7 88.3 56.2 59.7 59.7 2.8 3.3 2.7 297.5 302.3 0.00 0.0000000 74.7
2021-09-15 03:10:00 59.7 87.9 56.1 59.7 59.7 4.4 4.4 3.9 301.0 304.4 0.00 0.0000000 74.6
2021-09-15 03:15:00 59.7 88.3 56.2 59.7 59.7 4.2 4.7 3.9 334.1 313.7 0.00 0.0000000 74.4
2021-09-15 03:20:00 59.4 88.7 56.1 59.4 59.4 3.5 4.4 3.7 319.0 329.8 0.00 0.0000000 74.3
2021-09-15 03:25:00 59.1 89.5 56.0 59.1 59.1 4.2 4.2 3.7 309.3 307.4 0.00 0.0000000 74.2
2021-09-15 03:30:00 59.2 89.6 56.1 59.2 59.2 4.0 4.7 4.3 327.5 327.0 0.00 0.0000000 74.0
2021-09-15 03:35:00 59.1 89.4 56.0 59.1 59.1 3.8 4.2 3.9 312.8 323.4 0.00 0.0000000 73.9
2021-09-15 03:40:00 59.2 89.8 56.2 59.2 59.2 3.0 4.2 3.4 307.4 309.8 0.00 0.0000000 73.7
2021-09-15 03:45:00 58.9 90.3 56.1 58.9 58.9 3.3 3.5 3.3 304.7 303.8 0.00 0.0000000 73.6
2021-09-15 03:50:00 58.9 90.6 56.2 58.9 58.9 3.7 3.7 3.4 315.9 312.1 0.00 0.0000000 73.5
2021-09-15 03:55:00 58.8 90.8 56.1 58.8 58.8 3.5 3.5 3.1 307.0 312.8 0.00 0.0000000 73.3
2021-09-15 04:00:00 58.7 91.1 56.1 58.7 58.7 5.1 5.1 4.2 313.0 303.6 0.00 0.0000000 73.2
2021-09-15 04:05:00 58.7 91.0 56.0 58.7 58.7 4.7 5.1 4.3 314.5 308.6 0.00 0.0000000 73.1
2021-09-15 04:10:00 58.7 90.8 56.0 58.7 58.7 5.5 5.8 4.9 322.2 307.3 0.00 0.0000000 73.0
2021-09-15 04:15:00 58.7 90.7 56.0 58.7 58.7 5.5 5.8 5.0 311.5 314.2 0.00 0.0000000 72.8
2021-09-15 04:20:00 58.8 90.7 56.1 58.8 58.8 5.3 6.7 5.6 311.5 320.0 0.00 0.0000000 72.7
2021-09-15 04:25:00 58.9 90.7 56.2 58.9 58.9 3.5 5.8 4.0 323.3 321.1 0.00 0.0000000 72.6
2021-09-15 04:30:00 58.9 90.9 56.2 58.9 58.9 5.1 6.2 5.0 313.9 321.3 0.00 0.0000000 72.5
2021-09-15 04:35:00 59.1 90.8 56.4 59.1 59.1 4.9 6.0 5.2 305.8 316.8 0.00 0.0000000 72.3
2021-09-15 04:40:00 58.7 91.3 56.1 58.7 58.7 5.3 5.8 4.7 310.3 302.5 0.00 0.0000000 72.2
2021-09-15 04:45:00 58.6 91.7 56.2 58.6 58.6 4.2 5.8 4.9 301.7 307.5 0.00 0.0000000 72.1
2021-09-15 04:50:00 58.4 92.0 56.1 58.4 58.4 4.4 4.6 4.1 270.0 286.0 0.00 0.0000000 72.0
2021-09-15 04:55:00 58.2 92.4 56.0 58.2 58.2 4.7 5.1 4.1 302.1 288.0 0.00 0.0000000 71.9
2021-09-15 05:00:00 58.2 92.9 56.1 58.2 58.2 4.4 5.8 4.8 342.7 320.7 0.00 0.0000000 71.8
2021-09-15 05:05:00 58.3 92.9 56.3 58.3 58.3 3.8 3.8 2.9 308.0 314.8 0.00 0.0000000 71.7
2021-09-15 05:10:00 58.6 92.4 56.4 58.6 58.6 4.4 5.5 4.6 313.1 312.4 0.00 0.0000000 71.5
2021-09-15 05:15:00 58.6 91.8 56.2 58.6 58.6 4.2 4.7 3.6 293.1 309.3 0.00 0.0000000 71.4
2021-09-15 05:20:00 58.7 91.3 56.1 58.7 58.7 4.7 5.8 4.8 313.0 308.1 0.00 0.0000000 71.3
2021-09-15 05:25:00 58.6 90.7 55.9 58.6 58.6 4.2 5.5 4.9 312.8 308.4 0.00 0.0000000 71.2
2021-09-15 05:30:00 58.6 90.8 55.9 58.6 58.6 3.7 5.1 4.4 299.8 303.5 0.00 0.0000000 71.1
2021-09-15 05:35:00 58.5 91.2 55.9 58.5 58.5 2.6 4.0 3.2 293.2 299.4 0.00 0.0000000 71.0
2021-09-15 05:40:00 58.4 91.6 56.0 58.4 58.4 4.0 4.0 3.2 306.1 305.1 0.00 0.0000000 70.9
2021-09-15 05:45:00 58.3 91.7 55.9 58.3 58.3 3.3 4.2 3.7 283.2 296.2 0.00 0.0000000 70.8
2021-09-15 05:50:00 58.3 92.1 56.0 58.3 58.3 2.8 3.8 3.4 302.3 293.9 0.00 0.0000000 70.7
2021-09-15 05:55:00 58.2 92.0 55.9 58.2 58.2 2.1 2.8 2.2 302.5 292.6 0.00 0.0000000 70.6
2021-09-15 06:00:00 58.3 91.9 56.0 58.3 58.3 1.9 2.2 1.9 299.9 296.3 0.00 0.0000000 70.6
2021-09-15 06:05:00 58.0 92.2 55.8 58.0 58.0 2.6 3.5 2.9 303.4 305.0 0.00 0.0000000 70.5
2021-09-15 06:10:00 57.9 91.9 55.6 57.9 57.9 0.0 2.4 0.9 265.6 278.4 0.00 0.0000000 70.4
2021-09-15 06:15:00 57.8 91.8 55.4 57.8 57.8 2.4 3.1 1.7 284.0 277.1 0.00 0.0000000 70.3
2021-09-15 06:20:00 57.8 91.6 55.4 57.8 57.8 3.3 3.5 2.5 284.0 280.8 0.00 0.0000000 70.2
2021-09-15 06:25:00 57.8 91.9 55.5 57.8 57.8 3.8 4.2 3.5 292.4 282.2 0.00 0.0000000 70.1
2021-09-15 06:30:00 57.8 92.2 55.6 57.8 57.8 3.1 4.7 3.7 275.4 276.8 0.00 0.0000000 70.1
2021-09-15 06:35:00 57.9 92.3 55.7 57.9 57.9 3.3 3.7 3.3 281.7 287.2 0.00 0.0000520 70.0
2021-09-15 06:40:00 57.9 92.1 55.7 57.9 57.9 5.3 6.0 4.4 262.2 274.4 0.00 0.0005746 69.9
2021-09-15 06:45:00 58.1 91.6 55.6 58.1 58.1 6.2 6.9 5.5 272.4 268.5 0.00 0.0020438 69.8
2021-09-15 06:50:00 58.1 91.0 55.5 58.1 58.1 6.0 7.1 5.6 253.0 264.3 0.00 0.0049560 69.8
2021-09-15 06:55:00 58.2 90.7 55.5 58.2 58.2 5.6 8.1 6.2 262.2 258.9 0.00 0.0084631 69.7
2021-09-15 07:00:00 58.6 89.4 55.5 58.6 58.6 9.0 9.4 7.2 280.9 267.6 0.00 0.0123885 69.6
2021-09-15 07:05:00 58.7 88.9 55.4 58.7 58.7 7.6 8.0 6.8 277.6 265.1 0.00 0.0168547 69.5
2021-09-15 07:10:00 59.1 88.3 55.6 59.1 59.1 6.5 8.7 7.1 278.4 272.3 0.00 0.0213905 69.4
2021-09-15 07:15:00 59.1 88.4 55.6 59.1 59.1 5.3 7.8 5.8 283.5 277.7 0.00 0.0258407 69.4
2021-09-15 07:20:00 59.3 87.9 55.7 59.3 59.3 4.4 7.1 5.1 271.6 276.6 0.00 0.0299887 69.3
2021-09-15 07:25:00 59.5 87.4 55.8 59.5 59.5 6.7 7.6 6.1 275.5 271.7 0.00 0.0343618 69.3
2021-09-15 07:30:00 59.6 86.8 55.7 59.6 59.6 6.3 8.0 5.9 270.4 266.9 0.00 0.0393899 69.2
2021-09-15 07:35:00 59.8 85.7 55.5 59.8 59.8 6.5 7.6 6.2 251.0 263.4 0.00 0.0450298 69.2
2021-09-15 07:40:00 59.9 85.2 55.4 59.9 59.9 6.9 9.2 7.4 259.2 262.9 0.00 0.0501806 69.2
2021-09-15 07:45:00 60.2 85.3 55.8 60.2 60.2 8.3 9.4 6.9 261.6 268.4 0.00 0.0549334 69.2
2021-09-15 07:50:00 60.6 84.2 55.9 60.6 60.6 4.6 8.7 5.7 267.5 266.6 0.00 0.0599446 69.2
2021-09-15 07:55:00 61.4 83.8 56.4 61.4 61.4 3.0 6.3 4.1 287.2 265.4 0.00 0.0647248 69.2
2021-09-15 08:00:00 62.0 82.0 56.4 62.0 62.0 3.7 6.0 4.1 253.8 257.2 0.00 0.0696854 69.2
2021-09-15 08:05:00 62.5 78.9 55.9 62.5 62.5 2.8 4.6 3.0 259.7 256.6 0.00 0.0743442 69.3
2021-09-15 08:10:00 63.0 77.5 55.9 63.0 63.0 0.0 3.1 1.6 304.4 249.5 0.00 0.0787282 69.4
2021-09-15 08:15:00 64.1 77.0 56.7 64.1 64.1 2.2 3.5 1.0 292.7 315.8 0.00 0.0836639 69.5
2021-09-15 08:20:00 64.1 75.4 56.2 64.1 64.1 3.7 3.8 2.5 308.4 305.1 0.00 0.0886772 69.6
2021-09-15 08:25:00 64.1 74.3 55.7 64.1 64.1 2.6 4.4 2.7 251.2 288.5 0.00 0.0939506 69.7
2021-09-15 08:30:00 64.3 74.0 55.8 64.3 64.3 2.8 3.7 2.8 277.0 269.9 0.00 0.0989168 69.9
2021-09-15 08:35:00 64.4 74.0 55.9 64.4 64.4 5.3 5.8 4.3 252.4 268.8 0.00 0.1041995 70.1
2021-09-15 08:40:00 65.1 73.1 56.3 65.1 65.1 4.0 5.1 3.8 273.8 258.4 0.00 0.1097636 70.3
2021-09-15 08:45:00 65.7 70.2 55.7 65.7 65.7 1.2 4.4 2.8 258.9 264.7 0.00 0.1146349 70.4
2021-09-15 08:50:00 66.7 68.8 56.1 66.7 66.7 1.9 3.3 1.6 348.8 292.1 0.00 0.1196357 70.6
2021-09-15 08:55:00 67.7 67.9 56.7 67.7 67.7 1.5 2.4 0.9 271.3 346.6 0.00 0.1246052 70.9
2021-09-15 09:00:00 68.5 66.2 56.8 68.5 68.5 1.0 1.3 0.3 260.2 277.1 0.00 0.1282988 71.1
2021-09-15 09:05:00 68.7 66.3 57.0 68.7 68.7 2.1 2.8 1.6 335.8 342.8 0.00 0.1341718 71.4
2021-09-15 09:10:00 68.4 66.4 56.8 68.4 68.4 3.8 5.6 2.7 92.9 90.8 0.00 0.1391999 71.6
2021-09-15 09:15:00 68.9 65.5 56.9 68.9 68.9 3.0 3.7 1.9 107.8 115.2 0.00 0.1437593 72.0
2021-09-15 09:20:00 68.8 66.5 57.2 68.8 68.8 1.0 3.3 1.9 143.5 171.0 0.00 0.1482526 72.2
2021-09-15 09:25:00 69.5 64.3 56.9 69.5 69.5 2.1 4.2 2.5 34.7 65.8 0.00 0.1540451 72.5
2021-09-15 09:30:00 70.1 62.4 56.6 70.1 70.1 3.1 5.1 3.3 149.4 100.5 0.00 0.1590641 72.6
2021-09-15 09:35:00 70.4 63.3 57.3 70.4 70.4 0.0 3.3 1.6 109.2 153.1 0.00 0.1634533 72.7
2021-09-15 09:40:00 70.6 62.8 57.3 70.6 70.6 4.4 6.2 2.5 135.8 107.6 0.00 0.1682047 72.8
2021-09-15 09:45:00 70.3 63.0 57.1 70.3 70.3 4.7 7.4 5.1 174.2 134.2 0.00 0.1724266 72.8
2021-09-15 09:50:00 70.3 61.9 56.7 70.3 70.3 4.6 6.0 3.7 172.3 162.0 0.00 0.1778871 72.9
2021-09-15 09:55:00 70.3 63.7 57.4 70.3 70.3 7.1 7.6 5.7 144.8 157.8 0.00 0.1819413 72.8
2021-09-15 10:00:00 70.4 62.4 56.9 70.4 70.4 1.9 6.9 3.8 74.7 131.8 0.00 0.1863241 72.8
2021-09-15 10:05:00 71.0 62.0 57.3 71.0 71.0 0.0 5.8 2.9 171.5 136.6 0.00 0.1906298 72.8
2021-09-15 10:10:00 71.7 60.5 57.3 71.7 71.7 3.5 5.3 2.0 261.8 243.5 0.00 0.1950629 72.7
2021-09-15 10:15:00 72.0 60.7 57.7 72.0 72.0 3.8 5.5 2.7 114.1 135.2 0.00 0.1991347 72.7
2021-09-15 10:20:00 72.7 61.1 58.6 72.7 72.7 3.3 4.2 2.2 113.6 128.5 0.00 0.2025915 72.7
2021-09-15 10:25:00 72.5 61.7 58.6 72.5 72.5 3.8 7.8 4.7 249.0 169.1 0.00 0.2064608 72.7
2021-09-15 10:30:00 72.5 60.2 57.9 72.5 72.5 1.0 5.8 3.1 116.7 189.7 0.00 0.2102620 72.7
2021-09-15 10:35:00 72.8 60.6 58.4 72.8 72.8 2.6 7.6 3.4 86.5 125.1 0.00 0.2140846 72.8
2021-09-15 10:40:00 73.3 61.5 59.3 73.3 73.3 7.1 7.4 4.4 124.8 139.5 0.00 0.2174917 73.0
2021-09-15 10:45:00 73.2 60.4 58.7 73.2 73.2 5.8 8.5 4.1 155.4 160.6 0.00 0.2210313 73.2
2021-09-15 10:50:00 73.4 60.6 59.0 73.4 73.4 6.5 7.4 4.8 169.1 177.3 0.00 0.2245994 73.6
2021-09-15 10:55:00 74.2 59.8 59.3 74.2 74.2 3.8 7.8 5.7 153.8 150.1 0.00 0.2269442 74.0
2021-09-15 11:00:00 73.7 61.4 59.6 73.7 73.7 3.1 6.9 4.4 218.7 157.2 0.00 0.2314233 74.4
2021-09-15 11:05:00 74.5 58.1 58.8 74.5 74.5 6.2 13.0 6.6 188.0 167.0 0.00 0.2351023 74.8
2021-09-15 11:10:00 74.9 58.7 59.5 74.9 74.9 9.9 9.9 5.2 154.1 180.2 0.00 0.2371869 75.2
2021-09-15 11:15:00 74.7 59.0 59.4 74.7 74.7 6.3 9.2 6.3 174.4 149.7 0.00 0.2395642 75.7
2021-09-15 11:20:00 75.0 59.6 60.0 75.0 75.0 7.2 9.7 6.5 135.6 141.9 0.00 0.2422780 76.1
2021-09-15 11:25:00 74.9 57.9 59.1 74.9 74.9 8.0 11.7 7.3 151.3 175.1 0.00 0.2451206 76.5
2021-09-15 11:30:00 75.7 57.5 59.6 75.7 75.7 3.8 7.6 5.3 146.2 155.5 0.00 0.2476529 76.9
2021-09-15 11:35:00 75.7 57.4 59.6 75.7 75.7 3.5 8.0 5.7 128.6 145.2 0.00 0.2493368 77.3
2021-09-15 11:40:00 76.1 57.3 59.9 76.1 76.1 8.0 10.1 7.1 185.4 150.7 0.00 0.2519425 77.6
2021-09-15 11:45:00 76.4 55.7 59.4 76.4 76.4 4.4 8.1 5.6 159.1 176.4 0.00 0.2543507 78.0
2021-09-15 11:50:00 76.4 55.7 59.4 76.4 76.4 6.3 9.2 6.4 100.9 133.0 0.00 0.2568219 78.4
2021-09-15 11:55:00 76.1 55.1 58.9 76.1 76.1 2.8 11.7 7.7 166.8 141.7 0.00 0.2578855 78.7
2021-09-15 12:00:00 77.0 55.1 59.7 77.0 77.0 6.5 13.0 8.3 134.5 157.5 0.00 0.2600656 79.1
2021-09-15 12:05:00 77.1 54.5 59.5 77.1 77.1 6.0 8.8 7.0 157.2 167.2 0.00 0.2608749 79.4
2021-09-15 12:10:00 78.1 53.9 60.1 78.1 78.1 9.2 10.8 7.4 146.1 165.0 0.00 0.2630122 79.7
2021-09-15 12:15:00 78.2 52.2 59.3 78.2 78.2 2.8 11.2 6.2 183.0 190.5 0.00 0.2645761 80.1
2021-09-15 12:20:00 78.0 52.7 59.3 78.0 78.0 7.2 11.0 5.9 195.2 170.8 0.00 0.2677889 80.4
2021-09-15 12:25:00 78.2 52.6 59.5 78.2 78.2 5.3 12.8 7.5 171.2 177.2 0.00 0.2751785 80.8
2021-09-15 12:30:00 78.7 52.1 59.6 78.7 78.7 4.7 7.2 5.7 123.1 148.3 0.00 0.2815064 81.2
2021-09-15 12:35:00 79.7 50.6 59.8 79.7 79.7 4.9 10.6 5.8 194.8 142.1 0.00 0.2731981 81.5
2021-09-15 12:40:00 78.2 51.4 58.9 78.2 78.2 7.2 10.3 6.8 195.7 139.0 0.00 0.1484660 81.9
2021-09-15 12:45:00 79.9 49.3 59.2 79.9 79.9 4.2 12.1 6.5 212.8 181.2 0.00 0.2231146 82.3
2021-09-15 12:50:00 80.5 48.5 59.3 80.5 81.1 8.3 11.0 6.4 159.8 184.8 0.00 0.3040297 82.7
2021-09-15 12:55:00 80.5 49.0 59.6 80.5 81.1 8.7 10.6 7.7 177.0 148.2 0.00 0.2243167 83.0
2021-09-15 13:00:00 81.7 48.1 60.1 81.7 82.1 6.0 12.6 8.3 171.3 161.2 0.00 0.2826838 83.2
2021-09-15 13:05:00 79.7 48.8 58.7 79.7 79.7 8.7 10.8 7.6 173.9 175.2 0.00 0.1717649 83.6
2021-09-15 13:10:00 81.1 47.2 59.0 81.1 81.4 9.9 9.9 6.1 158.9 154.6 0.00 0.2880657 83.9
2021-09-15 13:15:00 82.0 43.7 57.7 82.0 81.9 10.3 14.4 8.3 173.1 190.0 0.00 0.2976901 84.1
2021-09-15 13:20:00 81.9 43.6 57.6 81.9 81.8 6.0 13.3 8.6 129.4 157.5 0.00 0.2333243 84.4
2021-09-15 13:25:00 82.0 42.7 57.1 82.0 81.7 8.8 12.4 8.8 134.4 172.4 0.00 0.1911774 84.8
2021-09-15 13:30:00 82.3 42.9 57.5 82.3 82.1 6.3 11.2 8.3 167.3 161.1 0.00 0.2790104 85.0
2021-09-15 13:35:00 81.7 42.7 56.8 81.7 81.5 6.5 11.7 8.1 151.0 169.6 0.00 0.1104447 85.3
2021-09-15 13:40:00 81.2 45.3 58.0 81.2 81.4 3.8 9.4 5.8 170.2 156.1 0.00 0.1422227 85.6
2021-09-15 13:45:00 82.0 42.3 56.8 82.0 81.7 11.7 13.3 10.5 195.2 180.5 0.00 0.2229607 85.7
2021-09-15 13:50:00 82.3 42.3 57.1 82.3 82.0 5.6 12.1 7.8 227.6 192.8 0.00 0.2328229 85.9
2021-09-15 13:55:00 83.4 41.4 57.5 83.4 82.9 6.0 10.8 7.9 161.9 206.0 0.00 0.2795995 86.1
2021-09-15 14:00:00 82.9 41.1 56.9 82.9 82.4 7.4 17.2 10.7 188.0 193.2 0.00 0.2607694 86.2
2021-09-15 14:05:00 82.4 41.3 56.5 82.4 81.9 9.4 13.1 10.5 185.8 177.4 0.00 0.1955177 86.4
2021-09-15 14:10:00 82.6 40.8 56.4 82.6 82.1 12.1 12.6 8.2 170.1 184.0 0.00 0.1524393 86.6
2021-09-15 14:15:00 84.6 39.1 57.0 84.6 84.6 9.4 16.0 8.5 208.4 175.6 0.00 0.2723815 86.8
2021-09-15 14:20:00 84.8 37.6 56.1 84.8 84.8 8.5 14.4 10.9 205.9 212.5 0.00 0.2557671 87.0
2021-09-15 14:25:00 84.3 39.3 56.8 84.3 84.3 12.2 12.2 8.1 180.0 187.9 0.00 0.2542049 87.2
2021-09-15 14:30:00 84.7 39.1 57.1 84.7 84.7 9.6 12.8 9.0 188.2 177.4 0.00 0.2538991 87.4
2021-09-15 14:35:00 83.6 39.2 56.2 83.6 83.6 8.7 13.7 10.0 174.6 192.4 0.00 0.1925563 87.6
2021-09-15 14:40:00 83.9 39.4 56.7 83.9 83.9 8.3 14.7 11.6 163.0 173.5 0.00 0.2389587 87.8
2021-09-15 14:45:00 83.9 39.2 56.4 83.9 83.9 11.7 17.4 10.7 156.2 170.2 0.00 0.2129179 88.0
2021-09-15 14:50:00 84.1 38.8 56.3 84.1 84.1 8.0 17.8 11.1 218.6 198.3 0.00 0.2343327 88.2
2021-09-15 14:55:00 84.9 38.1 56.5 84.9 84.9 10.8 13.1 10.2 172.9 188.9 0.00 0.2323537 88.4
2021-09-15 15:00:00 84.7 37.2 55.8 84.7 84.7 8.7 12.6 9.9 171.0 186.1 0.00 0.2301371 88.5
2021-09-15 15:05:00 84.9 37.6 56.2 84.9 84.9 11.2 12.6 9.3 187.6 182.4 0.00 0.2290259 88.7
2021-09-15 15:10:00 84.7 37.7 56.1 84.7 84.7 7.6 13.1 9.7 198.1 176.6 0.00 0.1967263 88.8
2021-09-15 15:15:00 84.9 37.1 55.9 84.9 84.9 11.5 14.7 10.4 181.0 180.4 0.00 0.2259534 89.0
2021-09-15 15:20:00 85.3 38.5 57.2 85.3 85.3 9.2 16.0 9.9 224.1 207.6 0.00 0.1803923 89.2
2021-09-15 15:25:00 85.2 37.2 56.2 85.2 85.2 10.6 14.0 9.6 212.7 190.8 0.00 0.1918473 89.3
2021-09-15 15:30:00 84.4 37.8 55.9 84.4 84.4 11.2 15.3 10.7 215.8 200.7 0.00 0.1599003 89.4
2021-09-15 15:35:00 83.6 38.9 56.0 83.6 83.6 7.6 11.3 9.1 184.7 188.2 0.00 0.0986468 89.5
2021-09-15 15:40:00 84.1 38.6 56.2 84.1 84.1 9.9 13.1 9.0 219.7 198.2 0.00 0.1166329 89.6
2021-09-15 15:45:00 85.4 37.1 56.3 85.4 85.4 10.6 11.2 9.3 177.3 198.8 0.00 0.1972281 89.5
2021-09-15 15:50:00 84.9 36.4 55.3 84.9 84.9 5.8 15.6 10.3 207.6 209.5 0.00 0.1084169 89.5
2021-09-15 15:55:00 84.7 37.7 56.1 84.7 84.7 5.8 12.4 7.5 219.7 201.8 0.00 0.1368366 89.5
2021-09-15 16:00:00 84.9 36.5 55.4 84.9 84.9 11.5 13.7 9.9 204.8 189.9 0.00 0.1515466 89.4
2021-09-15 16:05:00 84.8 36.3 55.1 84.8 84.8 8.5 16.4 11.0 220.3 195.9 0.00 0.1400566 89.4
2021-09-15 16:10:00 85.6 35.0 54.8 85.6 85.6 8.5 12.6 9.5 201.4 188.2 0.00 0.1693567 89.3
2021-09-15 16:15:00 85.7 35.4 55.3 85.7 85.7 11.9 12.6 9.4 188.7 189.8 0.00 0.1641585 89.2
2021-09-15 16:20:00 86.3 35.5 55.8 86.3 86.3 7.6 14.6 9.7 194.1 180.7 0.00 0.1548418 89.1
2021-09-15 16:25:00 85.4 35.3 54.9 85.4 85.4 9.0 12.4 9.0 187.3 193.6 0.00 0.1289606 89.0
2021-09-15 16:30:00 84.9 35.9 54.9 84.9 84.9 8.0 12.8 9.9 187.8 182.5 0.00 0.1100871 88.9
2021-09-15 16:35:00 85.9 34.8 54.9 85.9 85.9 13.0 13.5 9.4 170.6 179.9 0.00 0.1343736 88.8
2021-09-15 16:40:00 85.8 35.4 55.3 85.8 85.8 10.8 13.1 10.0 184.3 176.5 0.00 0.1361234 88.8
2021-09-15 16:45:00 85.3 34.1 53.8 85.3 85.3 11.2 13.5 11.0 179.7 180.5 0.00 0.1314201 88.7
2021-09-15 16:50:00 85.3 34.4 54.1 85.3 85.3 9.6 13.0 10.1 178.0 182.7 0.00 0.1164468 88.6
2021-09-15 16:55:00 85.6 34.7 54.6 85.6 85.6 11.0 11.7 9.1 216.8 185.1 0.00 0.1184456 88.6
2021-09-15 17:00:00 85.9 34.8 55.0 85.9 85.9 6.3 10.8 8.1 199.7 207.1 0.00 0.1133801 88.6
2021-09-15 17:05:00 86.3 33.9 54.6 86.3 86.3 8.5 11.5 7.7 214.3 187.3 0.00 0.1082091 88.5
2021-09-15 17:10:00 85.6 34.2 54.2 85.6 85.6 8.8 14.7 10.1 156.6 179.8 0.00 0.1036249 88.4
2021-09-15 17:15:00 85.7 34.1 54.2 85.7 85.7 9.7 12.2 10.1 191.0 181.1 0.00 0.0982044 88.3
2021-09-15 17:20:00 85.2 34.7 54.3 85.2 85.2 7.8 15.6 10.4 185.9 192.3 0.00 0.0917569 88.2
2021-09-15 17:25:00 85.6 35.1 54.8 85.6 85.6 10.3 10.6 8.1 155.0 183.3 0.00 0.0871317 88.1
2021-09-15 17:30:00 85.4 35.2 54.8 85.4 85.4 8.8 13.5 8.8 177.9 180.1 0.00 0.0821040 87.9
2021-09-15 17:35:00 85.4 35.1 54.8 85.4 85.4 8.8 15.1 8.9 180.0 183.5 0.00 0.0771534 87.8
2021-09-15 17:40:00 85.4 35.2 54.8 85.4 85.4 10.3 13.3 8.2 198.1 191.6 0.00 0.0720517 87.7
2021-09-15 17:45:00 84.9 35.2 54.4 84.9 84.9 9.0 12.1 9.2 189.1 191.4 0.00 0.0549447 87.6
2021-09-15 17:50:00 84.8 35.9 54.8 84.8 84.8 6.3 11.0 7.7 190.2 188.7 0.00 0.0623870 87.4
2021-09-15 17:55:00 84.8 34.7 53.9 84.8 84.8 7.1 11.3 8.2 204.1 200.5 0.00 0.0577413 87.3
2021-09-15 18:00:00 84.7 34.6 53.7 84.7 84.7 7.8 9.6 7.7 231.4 204.9 0.00 0.0531437 87.2
2021-09-15 18:05:00 84.5 35.9 54.5 84.5 84.5 8.3 11.5 8.8 195.9 201.7 0.00 0.0487358 87.0
2021-09-15 18:10:00 84.2 36.6 54.8 84.2 84.2 6.9 10.3 7.1 166.9 193.0 0.00 0.0440441 86.9
2021-09-15 18:15:00 83.7 36.5 54.3 83.7 83.7 6.7 13.0 9.0 198.0 193.7 0.00 0.0394943 86.8
2021-09-15 18:20:00 83.5 36.8 54.3 83.5 83.5 6.0 11.0 7.9 185.1 191.4 0.00 0.0346655 86.6
2021-09-15 18:25:00 83.2 37.0 54.3 83.2 83.2 6.3 10.1 8.0 198.4 189.8 0.00 0.0301992 86.4
2021-09-15 18:30:00 82.9 38.1 54.7 82.9 82.9 7.8 9.0 6.7 181.8 192.3 0.00 0.0255598 86.3
2021-09-15 18:35:00 82.5 38.7 54.9 82.5 82.5 7.6 11.7 7.3 214.6 196.2 0.00 0.0209879 86.1
2021-09-15 18:40:00 82.4 38.7 54.8 82.4 82.4 6.2 10.8 7.5 183.3 189.9 0.00 0.0167011 85.9
2021-09-15 18:45:00 81.7 39.8 54.8 81.7 81.7 6.2 7.8 6.2 197.6 186.3 0.00 0.0118339 85.7
2021-09-15 18:50:00 81.3 40.2 54.8 81.3 80.9 6.7 8.5 6.7 175.9 185.6 0.00 0.0073317 85.6
2021-09-15 18:55:00 80.7 41.2 54.9 80.7 80.5 6.7 8.0 6.4 193.0 184.5 0.00 0.0039891 85.4
2021-09-15 19:00:00 80.3 41.7 54.9 80.3 80.3 6.9 9.6 6.7 196.5 189.8 0.00 0.0009853 85.2
2021-09-15 19:05:00 80.2 41.6 54.8 80.2 80.2 4.7 11.5 7.4 195.5 188.7 0.00 0.0000753 85.0
2021-09-15 19:10:00 79.8 42.4 54.9 79.8 79.8 5.5 9.2 6.7 210.9 187.7 0.00 0.0000000 84.8
2021-09-15 19:15:00 79.4 42.8 54.8 79.4 79.4 6.3 8.5 6.8 169.4 188.7 0.00 0.0000000 84.6
2021-09-15 19:20:00 78.7 43.7 54.8 78.7 78.7 7.1 8.3 5.8 199.2 183.0 0.00 0.0000000 84.3
2021-09-15 19:25:00 78.5 44.1 54.8 78.5 78.5 6.2 7.1 5.8 176.7 179.8 0.00 0.0000000 84.1
2021-09-15 19:30:00 78.2 44.5 54.8 78.2 78.2 5.3 7.1 5.4 200.0 181.4 0.00 0.0000000 83.9
2021-09-15 19:35:00 78.0 44.7 54.8 78.0 78.0 4.9 7.6 5.3 196.3 187.1 0.00 0.0000000 83.6
2021-09-15 19:40:00 77.7 45.2 54.8 77.7 77.7 6.5 6.9 5.4 194.2 185.5 0.00 0.0000000 83.4
2021-09-15 19:45:00 77.6 45.7 55.0 77.6 77.6 4.9 7.2 5.7 188.1 185.7 0.00 0.0000000 83.2
2021-09-15 19:50:00 77.3 46.1 54.9 77.3 77.3 5.8 7.2 5.3 175.8 182.4 0.00 0.0000000 83.0
2021-09-15 19:55:00 77.1 46.4 55.0 77.1 77.1 6.0 7.1 5.6 207.6 189.5 0.00 0.0000000 82.8
2021-09-15 20:00:00 77.0 46.8 55.1 77.0 77.0 5.5 6.7 5.7 167.6 190.6 0.00 0.0000000 82.6
2021-09-15 20:05:00 76.7 47.5 55.2 76.7 76.7 5.5 6.2 4.7 186.4 192.0 0.00 0.0000000 82.4
2021-09-15 20:10:00 76.4 48.4 55.5 76.4 76.4 3.7 6.0 4.6 190.5 178.8 0.00 0.0000000 82.2
2021-09-15 20:15:00 76.3 48.4 55.4 76.3 76.3 5.3 6.7 5.3 169.0 184.6 0.00 0.0000000 82.0
2021-09-15 20:20:00 76.0 48.9 55.5 76.0 76.0 4.9 6.2 5.1 178.1 182.7 0.00 0.0000000 81.8
2021-09-15 20:25:00 75.8 49.5 55.6 75.8 75.8 4.6 5.8 4.7 179.3 182.7 0.00 0.0000000 81.6
2021-09-15 20:30:00 75.4 50.3 55.6 75.4 75.4 4.0 6.2 4.8 198.4 182.1 0.00 0.0000000 81.4
2021-09-15 20:35:00 75.2 50.4 55.5 75.2 75.2 5.3 7.4 5.1 186.8 184.4 0.00 0.0000000 81.3
2021-09-15 20:40:00 74.9 51.0 55.6 74.9 74.9 4.9 6.3 4.8 181.8 183.3 0.00 0.0000000 81.1
2021-09-15 20:45:00 74.6 52.1 55.9 74.6 74.6 4.6 6.0 4.7 192.4 187.0 0.00 0.0000000 80.9
2021-09-15 20:50:00 73.9 53.7 56.1 73.9 73.9 2.6 5.3 3.9 169.5 178.8 0.00 0.0000000 80.7
2021-09-15 20:55:00 73.3 54.7 56.0 73.3 73.3 2.4 4.4 3.3 163.7 165.4 0.00 0.0000000 80.6
2021-09-15 21:00:00 72.9 55.7 56.1 72.9 72.9 2.6 3.5 2.7 119.3 139.5 0.00 0.0000000 80.4
2021-09-15 21:05:00 72.2 58.0 56.6 72.2 72.2 4.0 4.0 3.3 62.6 88.1 0.00 0.0000000 80.2
2021-09-15 21:10:00 72.1 57.3 56.2 72.1 72.1 4.9 6.2 4.2 86.5 88.3 0.00 0.0000000 80.1
2021-09-15 21:15:00 71.6 59.0 56.5 71.6 71.6 5.8 6.0 4.6 91.5 89.8 0.00 0.0000000 79.9
2021-09-15 21:20:00 71.0 60.1 56.5 71.0 71.0 4.4 5.1 3.9 78.2 96.7 0.00 0.0000000 79.8
2021-09-15 21:25:00 71.0 59.8 56.3 71.0 71.0 3.8 4.7 3.6 125.3 106.7 0.00 0.0000000 79.6
2021-09-15 21:30:00 71.4 59.3 56.5 71.4 71.4 3.3 4.4 3.2 131.4 123.0 0.00 0.0000000 79.4
2021-09-15 21:35:00 71.8 58.3 56.3 71.8 71.8 3.3 4.7 3.3 141.6 134.0 0.00 0.0000000 79.3
2021-09-15 21:40:00 72.0 58.1 56.4 72.0 72.0 3.5 4.4 3.7 116.2 129.0 0.00 0.0000000 79.1
2021-09-15 21:45:00 71.5 58.8 56.4 71.5 71.5 3.3 4.4 3.4 109.5 109.5 0.00 0.0000000 79.0
2021-09-15 21:50:00 71.3 59.2 56.3 71.3 71.3 3.7 4.2 3.0 128.2 111.5 0.00 0.0000000 78.8
2021-09-15 21:55:00 71.0 59.4 56.2 71.0 71.0 2.1 4.0 3.3 95.1 108.1 0.00 0.0000000 78.7
2021-09-15 22:00:00 70.9 60.1 56.4 70.9 70.9 2.6 4.2 3.1 125.1 108.8 0.00 0.0000000 78.5
2021-09-15 22:05:00 70.7 60.9 56.5 70.7 70.7 3.1 3.1 2.2 102.7 115.3 0.00 0.0000000 78.4
2021-09-15 22:10:00 70.3 61.7 56.5 70.3 70.3 3.0 3.8 3.2 128.0 116.3 0.00 0.0000000 78.2
2021-09-15 22:15:00 69.9 62.7 56.7 69.9 69.9 2.6 3.8 3.3 126.3 121.9 0.00 0.0000000 78.1
2021-09-15 22:20:00 69.9 62.7 56.7 69.9 69.9 3.5 4.7 3.3 129.4 126.9 0.00 0.0000000 78.0
2021-09-15 22:25:00 69.8 63.1 56.6 69.8 69.8 1.9 3.7 2.5 114.0 106.5 0.00 0.0000000 77.8
2021-09-15 22:30:00 69.7 62.8 56.5 69.7 69.7 2.1 2.4 2.1 78.2 108.0 0.00 0.0000000 77.7
2021-09-15 22:35:00 69.3 63.8 56.6 69.3 69.3 2.2 2.8 2.3 88.9 84.3 0.00 0.0000000 77.6
2021-09-15 22:40:00 69.3 63.3 56.3 69.3 69.3 1.3 2.4 1.9 109.0 94.4 0.00 0.0000000 77.4
2021-09-15 22:45:00 69.8 62.2 56.3 69.8 69.8 2.1 2.4 1.9 95.2 95.2 0.00 0.0000000 77.3
2021-09-15 22:50:00 69.8 62.5 56.4 69.8 69.8 2.4 3.5 2.7 94.2 89.3 0.00 0.0000000 77.2
2021-09-15 22:55:00 69.7 62.5 56.3 69.7 69.7 2.4 2.6 2.2 84.0 98.4 0.00 0.0000000 77.0
2021-09-15 23:00:00 69.3 63.8 56.5 69.3 69.3 2.6 3.0 2.5 100.7 86.4 0.00 0.0000000 76.9
2021-09-15 23:05:00 69.0 64.3 56.5 69.0 69.0 2.8 3.0 2.6 92.6 87.0 0.00 0.0000000 76.8
2021-09-15 23:10:00 68.8 64.8 56.4 68.8 68.8 2.8 3.3 2.6 89.5 92.3 0.00 0.0000000 76.7
2021-09-15 23:15:00 68.6 65.3 56.5 68.6 68.6 2.4 2.8 2.3 80.0 87.9 0.00 0.0000000 76.5
2021-09-15 23:20:00 68.3 65.7 56.4 68.3 68.3 2.2 2.8 2.1 71.9 82.8 0.00 0.0000000 76.4
2021-09-15 23:25:00 68.6 64.8 56.3 68.6 68.6 1.3 2.6 2.1 84.7 58.4 0.00 0.0000000 76.3
2021-09-15 23:30:00 68.7 64.3 56.1 68.7 68.7 2.2 2.2 1.4 71.6 54.8 0.00 0.0000000 76.2
2021-09-15 23:35:00 68.6 64.8 56.3 68.6 68.6 0.8 2.6 1.8 30.0 14.8 0.00 0.0000000 76.0
2021-09-15 23:40:00 69.1 63.7 56.3 69.1 69.1 1.5 3.5 1.8 179.8 220.6 0.00 0.0000000 75.9
2021-09-15 23:45:00 70.1 61.4 56.2 70.1 70.1 4.0 5.3 3.2 192.8 168.2 0.00 0.0000000 75.8
2021-09-15 23:50:00 69.8 62.0 56.2 69.8 69.8 2.6 6.0 3.6 153.4 149.8 0.00 0.0000000 75.7
2021-09-15 23:55:00 69.7 62.7 56.4 69.7 69.7 3.3 4.6 3.3 142.7 157.7 0.00 0.0000000 75.6
2021-09-16 00:00:00 69.8 62.0 56.2 69.8 69.8 4.4 6.9 4.6 149.1 165.4 0.00 0.0000000 75.5

Data is courtesy of the NM Climate Center. DO NOT USE IN LEGAL PROCEEDINGS.